createdAt,value
2018-10-04T00:03:03.109Z,4.40
2018-10-04T00:05:32.056Z,4.50
2018-10-04T00:08:00.944Z,4.70
2018-10-04T00:10:29.931Z,4.90
2018-10-04T01:02:44.737Z,5.40
2018-10-04T01:05:13.813Z,5.30
2018-10-04T01:07:43.379Z,5.40
2018-10-04T01:10:12.852Z,5.60
2018-10-04T02:02:37.504Z,5.40
2018-10-04T02:05:06.509Z,5.30
2018-10-04T02:07:35.519Z,5.30
2018-10-04T02:10:05.504Z,5.40
2018-10-04T03:02:39.693Z,4.30
2018-10-04T03:05:08.719Z,4.20
2018-10-04T03:07:37.729Z,4.20
2018-10-04T03:10:06.728Z,4.40
2018-10-04T04:02:47.822Z,4.10
2018-10-04T04:05:16.864Z,4.00
2018-10-04T04:07:45.893Z,4.10
2018-10-04T04:10:14.916Z,4.30
2018-10-04T05:03:05.286Z,3.70
2018-10-04T05:05:34.256Z,3.60
2018-10-04T05:08:04.441Z,3.90
2018-10-04T05:10:34.073Z,4.00
2018-10-04T06:02:37.681Z,5.40
2018-10-04T06:05:06.777Z,5.30
2018-10-04T06:07:36.013Z,5.60
2018-10-04T06:10:05.412Z,5.80
2018-10-04T07:03:07.452Z,8.10
2018-10-04T07:05:36.436Z,8.20
2018-10-04T07:08:05.446Z,8.30
2018-10-04T07:10:34.520Z,8.70
2018-10-04T08:02:37.353Z,8.70
2018-10-04T08:05:06.387Z,8.80
2018-10-04T08:07:35.434Z,9.00
2018-10-04T08:10:04.482Z,9.30
2018-10-04T09:02:37.485Z,10.20
2018-10-04T09:05:29.493Z,10.40
2018-10-04T09:07:59.180Z,10.70
2018-10-04T10:02:50.617Z,13.10
2018-10-04T10:05:19.894Z,13.10
2018-10-04T10:07:49.899Z,13.40
2018-10-04T11:02:37.137Z,12.20
2018-10-04T11:05:06.158Z,12.70
2018-10-04T11:07:35.126Z,13.30
2018-10-04T11:10:04.170Z,13.90
2018-10-04T12:02:54.140Z,11.80
2018-10-04T12:05:23.209Z,11.90
2018-10-04T12:07:52.372Z,12.00
2018-10-04T12:10:21.388Z,12.10
2018-10-04T13:02:47.818Z,12.10
2018-10-04T13:05:16.951Z,12.30
2018-10-04T13:07:45.968Z,12.40
2018-10-04T14:02:37.414Z,11.60
2018-10-04T14:05:06.615Z,11.60
2018-10-04T14:07:35.589Z,11.50
2018-10-04T14:10:05.669Z,11.50
2018-10-04T15:02:37.177Z,10.90
2018-10-04T15:05:06.178Z,11.00
2018-10-04T15:07:35.274Z,11.10
2018-10-04T15:10:04.363Z,11.20
2018-10-04T16:02:39.437Z,10.00
2018-10-04T16:05:08.490Z,9.90
2018-10-04T16:07:37.545Z,10.00
2018-10-04T16:10:07.005Z,10.20
2018-10-04T17:02:47.301Z,6.70
2018-10-04T17:05:16.342Z,6.70
2018-10-04T17:07:45.613Z,6.60
2018-10-04T18:02:39.796Z,5.20
2018-10-04T18:05:10.144Z,5.30
2018-10-04T18:07:39.471Z,5.70
2018-10-04T19:02:37.029Z,5.30
2018-10-04T19:05:06.298Z,5.30
2018-10-04T19:07:35.534Z,5.40
2018-10-04T19:10:04.773Z,5.50
2018-10-04T20:02:37.965Z,3.80
2018-10-04T20:05:08.555Z,3.80
2018-10-04T20:07:37.722Z,3.90
2018-10-04T21:02:56.326Z,3.00
2018-10-04T21:05:25.449Z,3.10
2018-10-04T21:07:54.593Z,3.20
2018-10-04T21:10:24.310Z,3.40
2018-10-04T22:02:38.918Z,2.80
2018-10-04T22:05:07.814Z,2.90
2018-10-04T22:07:36.782Z,3.10
2018-10-04T22:10:06.626Z,3.20
2018-10-04T23:02:38.874Z,2.70
2018-10-04T23:05:08.572Z,2.80
2018-10-04T23:07:37.501Z,3.00
2018-10-04T23:10:06.398Z,3.40
